Time;durP1;ratioP1;P1;durP2;ratioP2;P2;SDS_P1;SDS_P2;PMS_P1;PMS_P2;Temp;Humidity;BMP_temperature;BMP_pressure;BME280_temperature;BME280_humidity;BME280_pressure;Samples;Min_cycle;Max_cycle;Signal;HPM_P1;HPM_P2
2022/09/24 00:03:06;;;;;;;0.43;0.43;;;;;;;;;;10396813;28;20219;-76
2022/09/24 00:08:07;;;;;;;0.70;0.70;;;;;;;;;;10406793;28;20269;-76
2022/09/24 00:13:11;;;;;;;2.50;0.45;;;;;;;;;;10411680;28;20210;-76
2022/09/24 00:18:12;;;;;;;3.85;0.90;;;;;;;;;;10388970;28;20813;-76
2022/09/24 00:23:13;;;;;;;0.32;0.32;;;;;;;;;;10377820;28;20211;-77
2022/09/24 00:28:15;;;;;;;0.57;0.57;;;;;;;;;;10354079;28;20318;-77
2022/09/24 00:33:16;;;;;;;0.30;0.30;;;;;;;;;;10383641;28;22196;-75
2022/09/24 00:38:17;;;;;;;0.40;0.30;;;;;;;;;;10381056;28;20229;-76
2022/09/24 00:43:29;;;;;;;0.20;0.20;;;;;;;;;;10365932;28;20299;-77
2022/09/24 00:48:33;;;;;;;0.17;0.17;;;;;;;;;;10385897;28;20428;-76
2022/09/24 00:53:34;;;;;;;0.10;0.10;;;;;;;;;;10393767;28;20214;-76
2022/09/24 00:58:35;;;;;;;0.10;0.10;;;;;;;;;;10354914;28;20227;-76
2022/09/24 01:03:41;;;;;;;4.38;0.88;;;;;;;;;;10397068;28;20972;-76
2022/09/24 01:08:42;;;;;;;0.65;0.10;;;;;;;;;;10380819;28;20797;-76
2022/09/24 01:13:55;;;;;;;2.63;1.27;;;;;;;;;;10380744;28;20222;-76
2022/09/24 01:19:05;;;;;;;0.10;0.10;;;;;;;;;;10395339;28;20260;-77
2022/09/24 01:24:24;;;;;;;0.73;0.63;;;;;;;;;;10393496;28;20219;-76
2022/09/24 01:29:26;;;;;;;0.20;0.20;;;;;;;;;;10383500;28;20241;-76
2022/09/24 01:34:29;;;;;;;0.77;0.20;;;;;;;;;;10368896;28;20226;-77
2022/09/24 01:39:31;;;;;;;0.40;0.40;;;;;;;;;;10366385;28;20207;-76
2022/09/24 01:44:33;;;;;;;0.10;0.10;;;;;;;;;;10375098;28;20235;-77
2022/09/24 01:49:34;;;;;;;0.30;0.30;;;;;;;;;;10370851;28;20220;-76
2022/09/24 01:54:38;;;;;;;0.43;0.43;;;;;;;;;;10365448;28;20207;-76
2022/09/24 01:59:44;;;;;;;0.20;0.20;;;;;;;;;;10380957;28;20306;-77
2022/09/24 02:04:47;;;;;;;0.17;0.17;;;;;;;;;;10401721;28;20226;-77
2022/09/24 02:09:48;;;;;;;1.85;0.95;;;;;;;;;;10408017;28;20231;-76
2022/09/24 02:14:53;;;;;;;1.02;0.30;;;;;;;;;;10392967;28;20238;-77
2022/09/24 02:19:56;;;;;;;1.67;0.65;;;;;;;;;;10392328;28;20766;-76
2022/09/24 02:25:00;;;;;;;0.13;0.13;;;;;;;;;;10386759;28;20227;-76
2022/09/24 02:30:01;;;;;;;0.47;0.28;;;;;;;;;;10389732;28;20342;-77
2022/09/24 02:35:04;;;;;;;0.43;0.43;;;;;;;;;;10388964;28;20234;-76
2022/09/24 02:40:06;;;;;;;0.38;0.38;;;;;;;;;;10398731;28;20242;-76
2022/09/24 02:45:08;;;;;;;2.95;1.90;;;;;;;;;;10413341;28;20226;-76
2022/09/24 02:50:09;;;;;;;0.35;0.35;;;;;;;;;;10389512;28;20863;-76
2022/09/24 02:55:11;;;;;;;0.68;0.68;;;;;;;;;;10368388;28;20187;-77
2022/09/24 03:00:12;;;;;;;1.67;0.28;;;;;;;;;;10382113;28;20232;-76
2022/09/24 03:05:17;;;;;;;0.35;0.35;;;;;;;;;;10368253;28;20759;-79
2022/09/24 03:10:18;;;;;;;0.10;0.10;;;;;;;;;;10355106;28;20281;-76
2022/09/24 03:15:19;;;;;;;0.80;0.50;;;;;;;;;;10377865;28;20233;-77
2022/09/24 03:20:20;;;;;;;1.15;0.88;;;;;;;;;;10355342;28;20757;-77
2022/09/24 03:25:21;;;;;;;0.15;0.15;;;;;;;;;;10355748;28;20213;-76
2022/09/24 03:35:41;;;;;;;0.30;0.20;;;;;;;;;;10407433;28;20217;-76
2022/09/24 03:40:42;;;;;;;0.93;0.70;;;;;;;;;;10393615;28;20210;-76
2022/09/24 03:45:44;;;;;;;0.20;0.20;;;;;;;;;;10392797;28;20211;-76
2022/09/24 03:50:45;;;;;;;0.52;0.52;;;;;;;;;;10387014;28;20634;-76
2022/09/24 03:55:47;;;;;;;0.22;0.22;;;;;;;;;;10378001;28;20227;-76
2022/09/24 04:00:51;;;;;;;0.22;0.22;;;;;;;;;;10350759;28;20210;-76
2022/09/24 04:05:52;;;;;;;0.50;0.50;;;;;;;;;;10404154;28;20219;-76
2022/09/24 04:10:54;;;;;;;0.47;0.38;;;;;;;;;;10406528;28;20269;-76
2022/09/24 04:15:55;;;;;;;0.25;0.25;;;;;;;;;;10387503;28;20900;-76
2022/09/24 04:20:57;;;;;;;0.60;0.30;;;;;;;;;;10385261;28;20226;-77
2022/09/24 04:26:01;;;;;;;0.22;0.22;;;;;;;;;;10377622;28;21308;-76
2022/09/24 04:31:02;;;;;;;0.30;0.30;;;;;;;;;;10381716;28;20310;-76
2022/09/24 04:36:03;;;;;;;0.20;0.20;;;;;;;;;;10344850;28;20210;-77
2022/09/24 04:41:05;;;;;;;0.22;0.22;;;;;;;;;;10389961;28;20211;-76
2022/09/24 04:46:08;;;;;;;0.55;0.30;;;;;;;;;;10378908;28;20960;-76
2022/09/24 04:51:09;;;;;;;0.40;0.40;;;;;;;;;;10350833;28;20228;-77
2022/09/24 04:56:10;;;;;;;1.55;0.40;;;;;;;;;;10379507;28;20214;-76
2022/09/24 05:01:12;;;;;;;0.25;0.25;;;;;;;;;;10367440;28;20243;-76
2022/09/24 05:06:13;;;;;;;0.82;0.82;;;;;;;;;;10378941;28;20283;-76
2022/09/24 05:11:14;;;;;;;0.65;0.40;;;;;;;;;;10383798;28;20218;-76
2022/09/24 05:16:15;;;;;;;0.40;0.40;;;;;;;;;;10379792;28;20234;-76
2022/09/24 05:21:16;;;;;;;0.55;0.35;;;;;;;;;;10347574;28;20214;-76
2022/09/24 05:31:37;;;;;;;0.35;0.35;;;;;;;;;;10379993;28;20217;-77
2022/09/24 05:36:38;;;;;;;0.15;0.15;;;;;;;;;;10379970;28;20243;-77
2022/09/24 05:41:39;;;;;;;0.20;0.20;;;;;;;;;;10377996;28;20260;-77
2022/09/24 05:46:41;;;;;;;0.35;0.35;;;;;;;;;;10375917;28;20215;-77
2022/09/24 05:51:42;;;;;;;10.55;0.47;;;;;;;;;;10378287;28;20329;-77
2022/09/24 05:56:43;;;;;;;0.63;0.63;;;;;;;;;;10388335;28;20219;-77
2022/09/24 06:01:44;;;;;;;0.40;0.40;;;;;;;;;;10393117;28;20636;-76
2022/09/24 06:06:45;;;;;;;0.22;0.22;;;;;;;;;;10379458;28;20231;-76
2022/09/24 06:11:49;;;;;;;0.17;0.17;;;;;;;;;;10406172;28;20234;-76
2022/09/24 06:16:50;;;;;;;0.35;0.35;;;;;;;;;;10373845;28;20229;-76
2022/09/24 06:21:52;;;;;;;0.35;0.35;;;;;;;;;;10382323;28;20219;-76
2022/09/24 06:26:53;;;;;;;0.45;0.45;;;;;;;;;;10350995;28;20683;-77
2022/09/24 06:31:54;;;;;;;0.20;0.20;;;;;;;;;;10370750;28;20667;-77
2022/09/24 06:36:55;;;;;;;0.30;0.30;;;;;;;;;;10409566;28;20515;-77
2022/09/24 06:41:57;;;;;;;0.65;0.65;;;;;;;;;;10401507;28;20551;-77
2022/09/24 06:46:58;;;;;;;0.77;0.77;;;;;;;;;;10368259;28;20230;-76
2022/09/24 06:51:59;;;;;;;0.80;0.20;;;;;;;;;;10396525;28;20241;-77
2022/09/24 06:57:00;;;;;;;2.08;0.43;;;;;;;;;;10388072;28;20226;-77
2022/09/24 07:02:01;;;;;;;0.85;0.85;;;;;;;;;;10394265;28;20222;-77
2022/09/24 07:12:24;;;;;;;0.80;0.80;;;;;;;;;;10395386;28;20223;-77
2022/09/24 07:17:25;;;;;;;0.50;0.50;;;;;;;;;;10382945;28;20297;-76
2022/09/24 07:22:26;;;;;;;0.32;0.32;;;;;;;;;;10403251;28;20742;-77
2022/09/24 07:27:28;;;;;;;0.45;0.45;;;;;;;;;;10394074;28;20230;-78
2022/09/24 07:32:31;;;;;;;0.45;0.30;;;;;;;;;;10397277;28;22012;-78
2022/09/24 07:37:33;;;;;;;0.80;0.80;;;;;;;;;;10400354;28;20223;-78
2022/09/24 07:42:34;;;;;;;0.10;0.10;;;;;;;;;;10388508;28;20207;-77
2022/09/24 07:47:35;;;;;;;0.73;0.73;;;;;;;;;;10392217;28;20273;-77
2022/09/24 07:52:36;;;;;;;0.77;0.50;;;;;;;;;;10420250;28;20220;-77
2022/09/24 07:57:38;;;;;;;0.30;0.30;;;;;;;;;;10394477;28;20223;-78
2022/09/24 08:02:39;;;;;;;0.20;0.20;;;;;;;;;;10408469;28;20218;-78
2022/09/24 08:07:50;;;;;;;0.20;0.20;;;;;;;;;;10418027;28;20230;-78
2022/09/24 08:12:51;;;;;;;0.43;0.43;;;;;;;;;;10428343;28;20227;-78
2022/09/24 08:17:52;;;;;;;1.55;0.40;;;;;;;;;;10418268;28;20222;-78
2022/09/24 08:22:53;;;;;;;0.68;0.68;;;;;;;;;;10400780;28;20215;-78
2022/09/24 08:27:54;;;;;;;2.65;1.00;;;;;;;;;;10409798;28;20231;-78
2022/09/24 08:32:55;;;;;;;2.10;0.95;;;;;;;;;;10400379;28;20236;-78
2022/09/24 08:37:59;;;;;;;1.05;0.98;;;;;;;;;;10392891;28;20485;-78
2022/09/24 08:43:09;;;;;;;0.60;0.60;;;;;;;;;;10400546;28;20282;-78
2022/09/24 08:48:19;;;;;;;0.80;0.80;;;;;;;;;;10388386;28;20222;-78
2022/09/24 08:53:42;;;;;;;0.80;0.80;;;;;;;;;;10403760;28;20211;-78
2022/09/24 08:58:50;;;;;;;0.40;0.40;;;;;;;;;;10391892;28;20226;-78
2022/09/24 09:03:56;;;;;;;0.88;0.88;;;;;;;;;;10407818;28;20223;-79
2022/09/24 09:08:57;;;;;;;1.13;1.05;;;;;;;;;;10402468;28;20239;-78
2022/09/24 09:14:02;;;;;;;0.73;0.47;;;;;;;;;;10385969;28;20625;-78
2022/09/24 09:19:07;;;;;;;0.68;0.68;;;;;;;;;;10399113;28;20215;-78
2022/09/24 09:24:16;;;;;;;2.25;0.60;;;;;;;;;;10405363;28;20241;-78
2022/09/24 09:29:17;;;;;;;0.22;0.22;;;;;;;;;;10409459;28;20223;-78
2022/09/24 09:34:22;;;;;;;0.50;0.50;;;;;;;;;;10403703;28;20223;-79
2022/09/24 09:39:23;;;;;;;2.25;0.73;;;;;;;;;;10398001;28;20232;-78
2022/09/24 09:44:25;;;;;;;0.25;0.25;;;;;;;;;;10403702;28;20230;-78
2022/09/24 09:49:31;;;;;;;2.80;2.35;;;;;;;;;;10396112;28;20227;-78
2022/09/24 09:54:40;;;;;;;0.30;0.30;;;;;;;;;;10397672;28;20207;-78
2022/09/24 09:59:45;;;;;;;0.98;0.98;;;;;;;;;;10361605;28;20242;-78
2022/09/24 10:04:46;;;;;;;0.50;0.50;;;;;;;;;;10401378;28;20608;-78
2022/09/24 10:09:57;;;;;;;0.30;0.30;;;;;;;;;;10390217;28;20234;-79
2022/09/24 10:15:00;;;;;;;0.68;0.68;;;;;;;;;;10406602;28;20347;-78
2022/09/24 10:20:02;;;;;;;0.20;0.20;;;;;;;;;;10406709;28;20219;-78
2022/09/24 10:25:03;;;;;;;1.45;1.20;;;;;;;;;;10399148;28;20212;-78
2022/09/24 10:35:34;;;;;;;1.23;1.15;;;;;;;;;;10397201;28;20212;-78
2022/09/24 10:40:39;;;;;;;0.50;0.50;;;;;;;;;;10409910;28;20238;-78
2022/09/24 10:45:40;;;;;;;2.65;0.95;;;;;;;;;;10415049;28;20223;-78
2022/09/24 10:50:42;;;;;;;3.40;0.45;;;;;;;;;;10411301;28;20613;-78
2022/09/24 10:55:52;;;;;;;0.73;0.68;;;;;;;;;;10407555;28;20225;-80
2022/09/24 11:00:53;;;;;;;0.50;0.50;;;;;;;;;;10404004;28;20301;-79
2022/09/24 11:06:04;;;;;;;0.88;0.88;;;;;;;;;;10407422;28;20641;-79
2022/09/24 11:11:29;;;;;;;7.35;1.27;;;;;;;;;;10393764;28;20227;-78
2022/09/24 11:16:47;;;;;;;0.75;0.75;;;;;;;;;;10400803;28;20214;-79
2022/09/24 11:21:59;;;;;;;0.30;0.30;;;;;;;;;;10411623;28;20223;-79
2022/09/24 11:27:15;;;;;;;1.08;1.08;;;;;;;;;;10407025;28;20345;-79
2022/09/24 11:32:22;;;;;;;0.40;0.32;;;;;;;;;;10412261;28;20243;-79
2022/09/24 11:37:42;;;;;;;0.60;0.60;;;;;;;;;;10419488;28;20227;-79
2022/09/24 11:42:57;;;;;;;0.30;0.30;;;;;;;;;;10412161;28;20247;-79
2022/09/24 11:48:18;;;;;;;0.63;0.63;;;;;;;;;;10411687;28;20245;-79
2022/09/24 11:53:29;;;;;;;1.70;0.70;;;;;;;;;;10365473;28;20215;-79
2022/09/24 11:58:50;;;;;;;0.57;0.57;;;;;;;;;;10376142;28;20208;-78
2022/09/24 12:03:58;;;;;;;0.40;0.40;;;;;;;;;;10368330;28;20273;-78
2022/09/24 12:09:31;;;;;;;0.50;0.50;;;;;;;;;;10375906;28;20234;-80
2022/09/24 12:14:55;;;;;;;0.40;0.40;;;;;;;;;;10316803;28;20778;-80
2022/09/24 12:20:02;;;;;;;0.60;0.60;;;;;;;;;;10337303;28;20220;-81
2022/09/24 12:25:04;;;;;;;1.48;0.38;;;;;;;;;;10352880;28;20900;-81
2022/09/24 12:35:27;;;;;;;0.40;0.40;;;;;;;;;;10366613;28;20302;-80
2022/09/24 12:40:47;;;;;;;2.15;0.30;;;;;;;;;;10364076;28;20433;-80
2022/09/24 12:45:52;;;;;;;0.15;0.15;;;;;;;;;;10365915;28;20601;-79
2022/09/24 12:50:58;;;;;;;0.60;0.60;;;;;;;;;;10376038;28;20639;-79
2022/09/24 12:55:59;;;;;;;0.20;0.20;;;;;;;;;;10367192;28;20219;-80
2022/09/24 13:01:06;;;;;;;1.40;0.32;;;;;;;;;;10365313;28;20630;-79
2022/09/24 13:06:45;;;;;;;0.20;0.20;;;;;;;;;;10374292;28;20223;-79
2022/09/24 13:11:46;;;;;;;0.30;0.30;;;;;;;;;;10339767;28;20242;-79
2022/09/24 13:16:49;;;;;;;0.63;0.63;;;;;;;;;;10406972;28;20214;-80
2022/09/24 13:22:00;;;;;;;0.28;0.28;;;;;;;;;;10409149;28;20673;-79
2022/09/24 13:27:09;;;;;;;0.60;0.43;;;;;;;;;;10408857;28;20718;-79
2022/09/24 13:32:15;;;;;;;0.28;0.28;;;;;;;;;;10403876;28;20710;-79
2022/09/24 13:37:26;;;;;;;0.52;0.52;;;;;;;;;;10409575;28;20329;-80
2022/09/24 13:42:33;;;;;;;0.82;0.82;;;;;;;;;;10388524;28;20248;-80
2022/09/24 13:47:36;;;;;;;0.45;0.45;;;;;;;;;;10386815;28;20314;-80
2022/09/24 13:52:43;;;;;;;0.95;0.30;;;;;;;;;;10417910;28;20211;-80
2022/09/24 13:57:45;;;;;;;0.82;0.25;;;;;;;;;;10410099;28;20226;-81
2022/09/24 14:02:57;;;;;;;0.40;0.40;;;;;;;;;;10417897;28;20739;-81
2022/09/24 14:08:02;;;;;;;0.80;0.80;;;;;;;;;;10406713;28;20938;-80
2022/09/24 14:13:09;;;;;;;0.38;0.38;;;;;;;;;;10408777;28;20214;-79
2022/09/24 14:18:14;;;;;;;0.20;0.20;;;;;;;;;;10421075;28;20273;-80
2022/09/24 14:23:18;;;;;;;0.55;0.22;;;;;;;;;;10416304;28;20264;-79
2022/09/24 14:28:20;;;;;;;0.30;0.30;;;;;;;;;;10417505;28;20258;-79
2022/09/24 14:33:25;;;;;;;0.22;0.22;;;;;;;;;;10419332;28;20253;-80
2022/09/24 14:38:41;;;;;;;0.30;0.30;;;;;;;;;;10414424;28;21371;-79
2022/09/24 14:43:45;;;;;;;0.20;0.20;;;;;;;;;;10396222;28;20214;-81
2022/09/24 14:48:46;;;;;;;1.02;0.30;;;;;;;;;;10418866;28;20433;-79
2022/09/24 14:53:56;;;;;;;0.35;0.35;;;;;;;;;;10395813;28;20223;-79
2022/09/24 14:58:57;;;;;;;0.20;0.20;;;;;;;;;;10395097;28;20642;-80
2022/09/24 15:03:58;;;;;;;0.10;0.10;;;;;;;;;;10414215;28;20218;-79
2022/09/24 15:09:02;;;;;;;0.40;0.40;;;;;;;;;;10417473;28;20251;-79
2022/09/24 15:14:26;;;;;;;0.47;0.17;;;;;;;;;;10414855;28;20215;-80
2022/09/24 15:19:29;;;;;;;0.30;0.30;;;;;;;;;;10413765;28;20244;-79
2022/09/24 15:24:30;;;;;;;1.27;0.20;;;;;;;;;;10375214;28;20584;-80
2022/09/24 15:29:31;;;;;;;0.20;0.20;;;;;;;;;;10373374;28;20247;-79
2022/09/24 15:34:32;;;;;;;0.10;0.10;;;;;;;;;;10375672;28;20231;-79
2022/09/24 15:39:33;;;;;;;0.20;0.20;;;;;;;;;;10375039;28;20234;-79
2022/09/24 15:44:34;;;;;;;0.25;0.20;;;;;;;;;;10372483;28;20794;-79
2022/09/24 15:49:35;;;;;;;0.10;0.10;;;;;;;;;;10385666;28;20230;-80
2022/09/24 15:54:36;;;;;;;0.20;0.20;;;;;;;;;;10401501;28;20280;-79
2022/09/24 15:59:38;;;;;;;0.35;0.13;;;;;;;;;;10412954;28;20222;-80
2022/09/24 16:04:39;;;;;;;0.43;0.43;;;;;;;;;;10415241;28;20222;-79
2022/09/24 16:09:40;;;;;;;0.98;0.40;;;;;;;;;;10399363;28;20429;-79
2022/09/24 16:14:41;;;;;;;0.45;0.20;;;;;;;;;;10412251;28;20999;-79
2022/09/24 16:19:42;;;;;;;0.20;0.20;;;;;;;;;;10429292;28;20219;-79
2022/09/24 16:24:43;;;;;;;0.20;0.20;;;;;;;;;;10415799;28;20601;-79
2022/09/24 16:29:44;;;;;;;0.28;0.28;;;;;;;;;;10410391;28;20290;-79
2022/09/24 16:34:45;;;;;;;0.63;0.15;;;;;;;;;;10414229;28;20221;-79
2022/09/24 16:39:46;;;;;;;0.30;0.30;;;;;;;;;;10415161;28;20215;-79
2022/09/24 16:44:47;;;;;;;0.10;0.10;;;;;;;;;;10408747;28;20639;-79
2022/09/24 16:49:48;;;;;;;0.10;0.10;;;;;;;;;;10414084;28;20230;-79
2022/09/24 16:54:49;;;;;;;0.30;0.30;;;;;;;;;;10415788;28;20241;-79
2022/09/24 16:59:50;;;;;;;0.13;0.13;;;;;;;;;;10414934;28;20223;-79
2022/09/24 17:04:53;;;;;;;0.40;0.40;;;;;;;;;;10407918;28;20223;-80
2022/09/24 17:10:12;;;;;;;0.20;0.20;;;;;;;;;;10413025;28;20711;-80
2022/09/24 17:15:16;;;;;;;1.75;0.30;;;;;;;;;;10414323;28;20206;-80
2022/09/24 17:20:18;;;;;;;0.40;0.40;;;;;;;;;;10412813;28;20191;-82
2022/09/24 17:25:19;;;;;;;0.40;0.40;;;;;;;;;;10413115;28;20187;-79
2022/09/24 17:30:20;;;;;;;0.50;0.50;;;;;;;;;;10407192;28;20983;-79
2022/09/24 17:35:21;;;;;;;0.25;0.13;;;;;;;;;;10386300;28;20180;-78
2022/09/24 17:40:22;;;;;;;0.45;0.45;;;;;;;;;;10408538;28;20607;-79
2022/09/24 17:45:23;;;;;;;0.50;0.50;;;;;;;;;;10408837;28;20203;-79
2022/09/24 17:50:25;;;;;;;0.30;0.30;;;;;;;;;;10413019;28;20199;-79
2022/09/24 17:55:26;;;;;;;0.52;0.52;;;;;;;;;;10396579;28;20806;-79
2022/09/24 18:00:27;;;;;;;0.52;0.52;;;;;;;;;;10417155;28;20274;-79
2022/09/24 18:05:28;;;;;;;3.50;1.33;;;;;;;;;;10418296;28;20248;-79
2022/09/24 18:10:29;;;;;;;0.25;0.25;;;;;;;;;;10410726;28;20702;-80
2022/09/24 18:15:31;;;;;;;0.10;0.10;;;;;;;;;;10416383;28;20211;-79
2022/09/24 18:20:32;;;;;;;0.20;0.20;;;;;;;;;;10412995;28;20214;-79
2022/09/24 18:25:33;;;;;;;0.20;0.20;;;;;;;;;;10413977;28;20272;-78
2022/09/24 18:30:34;;;;;;;0.43;0.43;;;;;;;;;;10416725;28;20825;-78
2022/09/24 18:35:35;;;;;;;0.60;0.60;;;;;;;;;;10398797;28;20222;-78
2022/09/24 18:40:37;;;;;;;1.55;0.50;;;;;;;;;;10428176;28;20601;-78
2022/09/24 18:45:38;;;;;;;0.35;0.35;;;;;;;;;;10399095;28;20710;-78
2022/09/24 18:50:43;;;;;;;0.55;0.55;;;;;;;;;;10409355;28;20211;-79
2022/09/24 18:55:44;;;;;;;0.20;0.20;;;;;;;;;;10415020;28;20215;-78
2022/09/24 19:00:49;;;;;;;2.67;0.40;;;;;;;;;;10405203;28;20331;-77
2022/09/24 19:05:51;;;;;;;0.30;0.30;;;;;;;;;;10396821;28;20309;-77
2022/09/24 19:10:52;;;;;;;0.85;0.85;;;;;;;;;;10404400;28;20318;-77
2022/09/24 19:15:53;;;;;;;0.30;0.30;;;;;;;;;;10411668;28;20215;-77
2022/09/24 19:20:56;;;;;;;0.20;0.20;;;;;;;;;;10392384;28;20207;-77
2022/09/24 19:26:01;;;;;;;0.57;0.57;;;;;;;;;;10410935;28;20291;-77
2022/09/24 19:31:02;;;;;;;0.20;0.20;;;;;;;;;;10416132;28;20246;-77
2022/09/24 19:36:03;;;;;;;0.35;0.35;;;;;;;;;;10409448;28;20223;-78
2022/09/24 19:41:11;;;;;;;0.57;0.40;;;;;;;;;;10391980;28;20210;-77
2022/09/24 19:46:15;;;;;;;0.40;0.40;;;;;;;;;;10411534;28;20671;-77
2022/09/24 19:51:20;;;;;;;3.05;1.10;;;;;;;;;;10405089;28;20755;-77
2022/09/24 19:56:24;;;;;;;0.82;0.82;;;;;;;;;;10378855;28;20233;-78
2022/09/24 20:01:29;;;;;;;0.40;0.40;;;;;;;;;;10409340;28;20226;-77
2022/09/24 20:06:32;;;;;;;0.47;0.47;;;;;;;;;;10410222;28;20280;-77
2022/09/24 20:11:33;;;;;;;1.58;0.63;;;;;;;;;;10393013;28;20225;-77
2022/09/24 20:16:34;;;;;;;0.40;0.40;;;;;;;;;;10390881;28;20756;-77
2022/09/24 20:21:37;;;;;;;0.10;0.10;;;;;;;;;;10410775;28;20210;-77
2022/09/24 20:31:58;;;;;;;0.45;0.20;;;;;;;;;;10392872;28;20210;-77
2022/09/24 20:37:00;;;;;;;0.20;0.20;;;;;;;;;;10410598;28;20262;-77
2022/09/24 20:42:02;;;;;;;0.43;0.43;;;;;;;;;;10409769;28;20218;-78
2022/09/24 20:47:03;;;;;;;0.68;0.68;;;;;;;;;;10413433;28;20301;-78
2022/09/24 20:52:04;;;;;;;3.90;0.88;;;;;;;;;;10412348;28;20295;-77
2022/09/24 20:57:05;;;;;;;1.33;1.33;;;;;;;;;;10399171;28;20203;-78
2022/09/24 21:02:06;;;;;;;3.33;0.60;;;;;;;;;;10410502;28;20276;-78
2022/09/24 21:07:07;;;;;;;0.25;0.25;;;;;;;;;;10391146;28;20222;-77
2022/09/24 21:12:08;;;;;;;0.80;0.80;;;;;;;;;;10411547;28;20223;-76
2022/09/24 21:17:09;;;;;;;0.82;0.40;;;;;;;;;;10390197;28;20372;-77
2022/09/24 21:22:12;;;;;;;0.32;0.32;;;;;;;;;;10410659;28;20216;-77
2022/09/24 21:27:15;;;;;;;1.67;0.50;;;;;;;;;;10410347;28;20239;-77
2022/09/24 21:32:16;;;;;;;1.15;0.75;;;;;;;;;;10406842;28;20218;-77
2022/09/24 21:37:17;;;;;;;0.68;0.38;;;;;;;;;;10393145;28;20253;-77
2022/09/24 21:42:19;;;;;;;0.55;0.55;;;;;;;;;;10411439;28;20245;-77
2022/09/24 21:47:20;;;;;;;1.23;0.50;;;;;;;;;;10411895;28;20211;-77
2022/09/24 21:52:21;;;;;;;1.33;0.65;;;;;;;;;;10409922;28;20210;-77
2022/09/24 21:57:23;;;;;;;1.17;0.50;;;;;;;;;;10408726;28;20310;-76
2022/09/24 22:02:24;;;;;;;0.40;0.30;;;;;;;;;;10408938;28;20353;-77
2022/09/24 22:07:25;;;;;;;0.22;0.22;;;;;;;;;;10392320;28;20636;-77
2022/09/24 22:12:26;;;;;;;2.50;0.35;;;;;;;;;;10410340;28;20222;-76
2022/09/24 22:17:27;;;;;;;0.30;0.30;;;;;;;;;;10408676;28;20218;-77
2022/09/24 22:22:28;;;;;;;0.30;0.30;;;;;;;;;;10390395;28;20227;-77
2022/09/24 22:27:29;;;;;;;0.32;0.32;;;;;;;;;;10406119;28;20269;-77
2022/09/24 22:32:32;;;;;;;0.32;0.32;;;;;;;;;;10407514;28;20223;-77
2022/09/24 22:37:33;;;;;;;0.30;0.30;;;;;;;;;;10421795;28;20219;-77
2022/09/24 22:42:34;;;;;;;1.15;0.35;;;;;;;;;;10402409;28;20265;-77
2022/09/24 22:47:35;;;;;;;1.27;1.27;;;;;;;;;;10418751;28;20207;-77
2022/09/24 22:52:36;;;;;;;0.68;0.17;;;;;;;;;;10418048;28;20237;-77
2022/09/24 22:57:37;;;;;;;0.10;0.10;;;;;;;;;;10417768;28;20220;-77
2022/09/24 23:02:38;;;;;;;0.30;0.30;;;;;;;;;;10398459;28;20211;-78
2022/09/24 23:07:41;;;;;;;0.60;0.60;;;;;;;;;;10400989;28;20664;-77
2022/09/24 23:12:42;;;;;;;0.80;0.80;;;;;;;;;;10412776;28;20273;-79
2022/09/24 23:17:43;;;;;;;0.80;0.43;;;;;;;;;;10417243;28;20226;-77
2022/09/24 23:22:44;;;;;;;0.60;0.60;;;;;;;;;;10414876;28;20210;-78
2022/09/24 23:27:45;;;;;;;0.40;0.40;;;;;;;;;;10413893;28;20262;-77
2022/09/24 23:32:46;;;;;;;0.82;0.82;;;;;;;;;;10412099;28;20310;-77
2022/09/24 23:37:47;;;;;;;0.75;0.73;;;;;;;;;;10415454;28;20223;-77
2022/09/24 23:42:48;;;;;;;0.50;0.50;;;;;;;;;;10416756;28;20226;-77
2022/09/24 23:47:49;;;;;;;0.50;0.50;;;;;;;;;;10394738;28;20222;-77
2022/09/24 23:52:50;;;;;;;0.38;0.38;;;;;;;;;;10412685;28;20207;-77
2022/09/24 23:57:51;;;;;;;0.57;0.57;;;;;;;;;;10413147;28;20796;-77
